createdAt,value
2018-05-26T00:00:35.142Z,18.40
2018-05-26T00:03:09.356Z,18.40
2018-05-26T00:05:42.394Z,18.40
2018-05-26T00:08:24.458Z,18.40
2018-05-26T00:10:52.012Z,18.30
2018-05-26T00:13:20.698Z,18.30
2018-05-26T00:15:48.289Z,18.30
2018-05-26T00:18:17.760Z,18.30
2018-05-26T00:20:46.430Z,18.20
2018-05-26T00:23:20.669Z,18.20
2018-05-26T00:26:06.214Z,18.10
2018-05-26T00:28:34.938Z,18.10
2018-05-26T00:31:07.964Z,18.10
2018-05-26T00:33:38.756Z,18.00
2018-05-26T00:36:17.273Z,18.00
2018-05-26T00:39:02.790Z,18.00
2018-05-26T00:41:30.334Z,18.00
2018-05-26T00:43:59.011Z,17.90
2018-05-26T00:46:31.428Z,17.90
2018-05-26T00:49:15.680Z,17.90
2018-05-26T00:51:54.547Z,17.80
2018-05-26T00:54:33.048Z,17.80
2018-05-26T00:57:07.890Z,17.80
2018-05-26T00:59:36.609Z,17.70
2018-05-26T01:02:08.722Z,17.70
2018-05-26T01:04:36.430Z,17.70
2018-05-26T01:07:06.972Z,17.60
2018-05-26T01:09:35.660Z,17.60
2018-05-26T01:12:04.026Z,17.60
2018-05-26T01:14:41.898Z,17.60
2018-05-26T01:17:13.994Z,17.60
2018-05-26T01:19:44.841Z,17.60
2018-05-26T01:22:13.616Z,17.60
2018-05-26T01:24:42.208Z,17.60
2018-05-26T01:27:14.294Z,17.60
2018-05-26T01:29:56.157Z,17.60
2018-05-26T01:32:25.786Z,17.60
2018-05-26T01:34:55.078Z,17.60
2018-05-26T01:37:27.523Z,17.60
2018-05-26T01:39:56.184Z,17.50
2018-05-26T01:42:38.905Z,17.50
2018-05-26T01:45:28.006Z,17.50
2018-05-26T01:47:56.616Z,17.50
2018-05-26T01:50:24.129Z,17.50
2018-05-26T01:52:52.745Z,17.50
2018-05-26T01:55:20.272Z,17.50
2018-05-26T01:57:47.979Z,17.50
2018-05-26T02:00:40.358Z,17.50
2018-05-26T02:03:09.015Z,17.40
2018-05-26T02:05:36.559Z,17.40
2018-05-26T02:08:06.040Z,17.40
2018-05-26T02:10:34.791Z,17.40
2018-05-26T02:13:03.135Z,17.40
2018-05-26T02:15:36.145Z,17.40
2018-05-26T02:18:07.265Z,17.30
2018-05-26T02:20:34.764Z,17.30
2018-05-26T02:23:10.466Z,17.30
2018-05-26T02:25:40.081Z,17.30
2018-05-26T02:28:12.457Z,17.20
2018-05-26T02:30:46.634Z,17.20
2018-05-26T02:33:15.073Z,17.20
2018-05-26T02:35:42.618Z,17.10
2018-05-26T02:38:21.014Z,17.00
2018-05-26T02:40:56.776Z,17.00
2018-05-26T02:43:25.499Z,17.00
2018-05-26T02:45:55.080Z,17.00
2018-05-26T02:48:22.588Z,17.00
2018-05-26T02:51:08.692Z,17.00
2018-05-26T02:53:46.637Z,17.00
2018-05-26T02:56:16.270Z,17.00
2018-05-26T02:58:56.004Z,16.90
2018-05-26T03:01:38.450Z,16.90
2018-05-26T03:04:05.495Z,16.90
2018-05-26T03:06:40.682Z,16.90
2018-05-26T03:09:14.952Z,16.80
2018-05-26T03:11:49.111Z,16.90
2018-05-26T03:14:25.538Z,16.90
2018-05-26T03:16:56.160Z,16.80
2018-05-26T03:19:27.316Z,16.80
2018-05-26T03:21:55.092Z,16.80
2018-05-26T03:24:29.177Z,16.80
2018-05-26T03:26:59.502Z,16.80
2018-05-26T03:29:31.538Z,16.80
2018-05-26T03:32:04.547Z,16.70
2018-05-26T03:34:32.069Z,16.60
2018-05-26T03:37:01.610Z,16.60
2018-05-26T03:39:30.349Z,16.60
2018-05-26T03:42:11.511Z,16.70
2018-05-26T03:44:39.039Z,16.70
2018-05-26T03:47:08.643Z,16.70
2018-05-26T03:49:39.189Z,16.70
2018-05-26T03:52:07.641Z,16.70
2018-05-26T03:54:48.926Z,16.70
2018-05-26T03:57:29.297Z,16.70
2018-05-26T04:00:17.851Z,16.70
2018-05-26T04:02:46.568Z,16.70
2018-05-26T04:05:15.224Z,16.70
2018-05-26T04:07:43.917Z,16.80
2018-05-26T04:10:12.622Z,16.80
2018-05-26T04:12:41.299Z,16.80
2018-05-26T04:15:16.415Z,16.90
2018-05-26T04:17:48.523Z,16.90
2018-05-26T04:20:21.175Z,17.00
2018-05-26T04:22:49.895Z,17.00
2018-05-26T04:25:18.576Z,17.00
2018-05-26T04:27:46.075Z,17.10
2018-05-26T04:30:15.746Z,17.10
2018-05-26T04:32:49.239Z,17.20
2018-05-26T04:35:31.720Z,17.30
2018-05-26T04:38:07.787Z,17.30
2018-05-26T04:40:35.316Z,17.30
2018-05-26T04:43:07.631Z,17.30
2018-05-26T04:45:38.804Z,17.30
2018-05-26T04:51:01.050Z,17.30
2018-05-26T04:53:34.942Z,17.50
2018-05-26T04:56:13.447Z,17.50
2018-05-26T04:58:44.595Z,17.50
2018-05-26T05:01:23.093Z,17.50
2018-05-26T05:04:08.599Z,17.50
2018-05-26T05:06:38.323Z,17.60
2018-05-26T05:09:21.068Z,17.70
2018-05-26T05:12:06.674Z,17.70
2018-05-26T05:14:41.543Z,17.70
2018-05-26T05:17:09.082Z,17.80
2018-05-26T05:19:36.863Z,18.00
2018-05-26T05:22:04.529Z,18.10
2018-05-26T05:24:32.027Z,18.20
2018-05-26T05:27:02.879Z,18.20
2018-05-26T05:29:31.531Z,18.30
2018-05-26T05:32:07.901Z,18.50
2018-05-26T05:34:46.367Z,18.60
2018-05-26T05:37:17.581Z,18.60
2018-05-26T05:39:48.391Z,18.80
2018-05-26T05:42:23.898Z,18.90
2018-05-26T05:44:52.531Z,19.00
2018-05-26T05:47:20.047Z,19.00
2018-05-26T05:50:05.809Z,19.10
2018-05-26T05:52:41.920Z,19.20
2018-05-26T05:55:14.017Z,19.30
2018-05-26T05:57:53.740Z,19.40
2018-05-26T06:00:27.640Z,19.60
2018-05-26T06:02:57.286Z,19.70
2018-05-26T06:05:42.471Z,19.80
2018-05-26T06:08:12.168Z,19.70
2018-05-26T06:10:43.598Z,19.60
2018-05-26T06:13:13.222Z,19.60
2018-05-26T06:15:41.900Z,19.80
2018-05-26T06:18:24.360Z,19.90
2018-05-26T06:20:52.804Z,19.80
2018-05-26T06:23:33.196Z,19.90
2018-05-26T06:26:11.634Z,19.90
2018-05-26T06:28:42.842Z,19.90
2018-05-26T06:31:14.596Z,20.00
2018-05-26T06:33:42.335Z,20.20
2018-05-26T06:36:11.965Z,20.30
2018-05-26T06:38:40.323Z,20.50
2018-05-26T06:41:09.949Z,20.50
2018-05-26T06:43:38.331Z,20.80
2018-05-26T06:46:05.857Z,20.80
2018-05-26T06:48:33.562Z,20.90
2018-05-26T06:51:01.921Z,21.20
2018-05-26T06:53:40.130Z,21.20
2018-05-26T06:56:14.065Z,21.30
2018-05-26T06:58:51.638Z,21.30
2018-05-26T07:01:23.720Z,21.30
2018-05-26T07:03:59.141Z,21.50
2018-05-26T07:06:31.212Z,21.60
2018-05-26T07:09:04.222Z,21.70
2018-05-26T07:11:31.741Z,21.70
2018-05-26T07:14:01.273Z,21.80
2018-05-26T07:16:32.738Z,22.00
2018-05-26T07:19:01.403Z,22.30
2018-05-26T07:21:28.916Z,22.20
2018-05-26T07:23:56.651Z,22.30
2018-05-26T07:26:28.391Z,22.40
2018-05-26T07:28:58.037Z,22.50
2018-05-26T07:31:26.683Z,22.50
2018-05-26T07:34:05.212Z,22.70
2018-05-26T07:36:34.501Z,22.60
2018-05-26T07:39:02.008Z,22.60
2018-05-26T07:41:35.575Z,22.70
2018-05-26T07:44:04.244Z,22.90
2018-05-26T07:46:40.605Z,22.90
2018-05-26T07:49:15.197Z,22.90
2018-05-26T07:51:43.859Z,22.90
2018-05-26T07:54:29.367Z,23.10
2018-05-26T07:56:59.123Z,23.20
2018-05-26T07:59:31.079Z,23.50
2018-05-26T08:02:02.877Z,23.30
2018-05-26T08:04:32.523Z,23.30
2018-05-26T08:07:01.144Z,23.50
2018-05-26T08:09:41.187Z,23.60
2018-05-26T08:12:19.995Z,23.50
2018-05-26T08:14:58.849Z,23.70
2018-05-26T08:17:30.932Z,23.90
2018-05-26T08:20:15.232Z,24.10
2018-05-26T08:22:54.079Z,24.30
2018-05-26T08:25:22.799Z,24.30
2018-05-26T08:27:50.322Z,24.30
2018-05-26T08:30:25.065Z,24.50
2018-05-26T08:33:00.536Z,24.60
2018-05-26T08:35:32.929Z,24.30
2018-05-26T08:38:04.676Z,24.50
2018-05-26T08:40:36.169Z,24.80
2018-05-26T08:46:14.894Z,24.70
2018-05-26T08:48:53.767Z,24.90
2018-05-26T08:51:36.318Z,24.90
2018-05-26T08:54:04.670Z,25.40
2018-05-26T08:56:40.712Z,25.30
2018-05-26T08:59:12.509Z,25.50
2018-05-26T09:01:40.896Z,25.60
2018-05-26T09:04:11.157Z,25.40
2018-05-26T09:06:40.725Z,25.40
2018-05-26T09:09:11.558Z,25.50
2018-05-26T09:11:39.098Z,25.70
2018-05-26T09:14:06.771Z,25.80
2018-05-26T09:16:46.226Z,25.90
2018-05-26T09:19:31.724Z,25.90
2018-05-26T09:22:01.422Z,26.10
2018-05-26T09:24:30.078Z,26.20
2018-05-26T09:26:57.586Z,26.20
2018-05-26T09:29:25.329Z,26.30
2018-05-26T09:31:54.056Z,26.40
2018-05-26T09:34:21.757Z,26.40
2018-05-26T09:36:51.386Z,26.40
2018-05-26T09:39:20.052Z,26.60
2018-05-26T09:42:00.105Z,26.50
2018-05-26T09:44:45.628Z,26.50
2018-05-26T09:47:15.298Z,26.50
2018-05-26T09:49:47.359Z,26.60
2018-05-26T09:52:19.159Z,26.50
2018-05-26T09:55:03.137Z,26.50
2018-05-26T09:57:36.188Z,26.60
2018-05-26T10:00:28.862Z,26.50
2018-05-26T10:02:58.449Z,26.60
2018-05-26T10:05:38.129Z,26.70
2018-05-26T10:08:05.654Z,26.70
2018-05-26T10:10:34.317Z,26.80
2018-05-26T10:13:05.791Z,26.70
2018-05-26T10:15:38.446Z,26.70
2018-05-26T10:21:15.082Z,26.60
2018-05-26T10:23:42.625Z,26.50
2018-05-26T10:26:14.740Z,26.30
2018-05-26T10:28:44.317Z,26.30
2018-05-26T10:31:21.867Z,26.30
2018-05-26T10:33:50.594Z,26.40
2018-05-26T10:36:29.370Z,26.70
2018-05-26T10:39:15.844Z,26.90
2018-05-26T10:42:02.756Z,26.80
2018-05-26T10:44:34.799Z,26.80
2018-05-26T10:47:06.541Z,26.80
2018-05-26T10:49:41.432Z,27.00
2018-05-26T10:52:19.241Z,27.00
2018-05-26T10:54:56.837Z,27.20
2018-05-26T10:57:25.560Z,27.40
2018-05-26T10:59:56.101Z,27.50
2018-05-26T11:02:33.103Z,27.60
2018-05-26T11:05:07.540Z,27.60
2018-05-26T11:10:28.016Z,27.40
2018-05-26T11:13:01.291Z,27.70
2018-05-26T11:15:28.794Z,27.80
2018-05-26T11:17:57.617Z,27.90
2018-05-26T11:20:24.987Z,27.80
2018-05-26T11:22:52.686Z,27.80
2018-05-26T11:25:21.401Z,27.80
2018-05-26T11:27:49.145Z,28.00
2018-05-26T11:30:22.746Z,27.60
2018-05-26T11:32:59.085Z,27.70
2018-05-26T11:35:27.800Z,27.70
2018-05-26T11:37:58.009Z,27.60
2018-05-26T11:40:38.052Z,27.60
2018-05-26T11:43:05.889Z,27.80
2018-05-26T11:45:33.704Z,28.10
2018-05-26T11:48:03.211Z,28.30
2018-05-26T11:50:34.047Z,28.20
2018-05-26T11:53:02.738Z,28.40
2018-05-26T11:55:41.231Z,28.40
2018-05-26T11:58:10.871Z,28.40
2018-05-26T12:00:51.186Z,28.30
2018-05-26T12:03:20.878Z,28.30
2018-05-26T12:05:53.820Z,28.30
2018-05-26T12:08:36.867Z,28.10
2018-05-26T12:11:05.362Z,28.30
2018-05-26T12:13:33.077Z,28.50
2018-05-26T12:16:22.397Z,28.50
2018-05-26T12:18:51.963Z,28.30
2018-05-26T12:21:24.854Z,28.60
2018-05-26T12:23:54.261Z,28.50
2018-05-26T12:26:40.384Z,28.70
2018-05-26T12:29:13.731Z,28.60
2018-05-26T12:31:41.253Z,28.50
2018-05-26T12:34:08.947Z,28.70
2018-05-26T12:36:37.647Z,29.10
2018-05-26T12:39:06.088Z,28.80
2018-05-26T12:41:50.659Z,28.40
2018-05-26T12:44:23.689Z,28.60
2018-05-26T12:46:53.286Z,28.80
2018-05-26T12:49:39.738Z,28.70
2018-05-26T12:52:08.203Z,28.70
2018-05-26T12:54:42.671Z,28.70
2018-05-26T12:57:17.245Z,28.90
2018-05-26T12:59:44.772Z,28.90
2018-05-26T13:02:20.753Z,28.90
2018-05-26T13:04:59.247Z,28.80
2018-05-26T13:07:34.655Z,28.80
2018-05-26T13:10:07.715Z,28.80
2018-05-26T13:12:51.674Z,28.70
2018-05-26T13:15:24.128Z,28.80
2018-05-26T13:18:02.305Z,28.60
2018-05-26T13:20:40.812Z,28.90
2018-05-26T13:23:09.564Z,28.80
2018-05-26T13:25:37.369Z,28.70
2018-05-26T13:28:06.931Z,28.70
2018-05-26T13:30:47.251Z,28.60
2018-05-26T13:33:14.789Z,28.60
2018-05-26T13:35:43.501Z,28.80
2018-05-26T13:38:11.181Z,28.90
2018-05-26T13:40:40.813Z,29.00
2018-05-26T13:43:09.163Z,29.10
2018-05-26T13:45:47.364Z,29.10
2018-05-26T13:48:14.875Z,29.40
2018-05-26T13:50:44.489Z,29.40
2018-05-26T13:53:18.972Z,29.30
2018-05-26T13:55:51.092Z,29.30
2018-05-26T13:58:19.741Z,29.20
2018-05-26T14:00:51.497Z,29.10
2018-05-26T14:03:20.225Z,29.10
2018-05-26T14:05:49.789Z,29.10
2018-05-26T14:08:27.364Z,29.00
2018-05-26T14:10:56.989Z,28.90
2018-05-26T14:13:29.063Z,29.00
2018-05-26T14:15:58.656Z,28.90
2018-05-26T14:18:28.283Z,28.90
2018-05-26T14:21:02.168Z,28.70
2018-05-26T14:23:37.635Z,28.70
2018-05-26T14:26:16.131Z,28.60
2018-05-26T14:28:47.289Z,28.60
2018-05-26T14:31:33.455Z,28.50
2018-05-26T14:34:20.244Z,28.50
2018-05-26T14:36:53.316Z,28.40
2018-05-26T14:39:20.819Z,28.60
2018-05-26T14:41:48.957Z,28.70
2018-05-26T14:44:19.707Z,28.70
2018-05-26T14:46:47.424Z,28.70
2018-05-26T14:49:14.929Z,28.60
2018-05-26T14:52:03.269Z,28.60
2018-05-26T14:54:34.053Z,28.60
2018-05-26T14:57:01.565Z,28.70
2018-05-26T14:59:29.284Z,28.80
2018-05-26T15:01:58.856Z,28.80
2018-05-26T15:04:32.203Z,28.80
2018-05-26T15:07:14.346Z,28.70
2018-05-26T15:09:43.999Z,28.70
2018-05-26T15:12:20.100Z,28.90
2018-05-26T15:15:05.569Z,29.00
2018-05-26T15:17:46.600Z,29.00
2018-05-26T15:20:21.112Z,29.00
2018-05-26T15:22:51.994Z,29.10
2018-05-26T15:25:19.486Z,29.10
2018-05-26T15:27:49.062Z,28.90
2018-05-26T15:30:22.366Z,29.10
2018-05-26T15:32:50.735Z,29.60
2018-05-26T15:35:18.286Z,29.60
2018-05-26T15:37:49.326Z,29.60
2018-05-26T15:40:28.801Z,29.70
2018-05-26T15:43:06.352Z,29.30
2018-05-26T15:45:35.063Z,29.10
2018-05-26T15:48:02.583Z,28.90
2018-05-26T15:50:31.157Z,29.10
2018-05-26T15:52:59.132Z,29.20
2018-05-26T15:55:26.756Z,29.10
2018-05-26T15:57:54.495Z,29.10
2018-05-26T16:00:26.574Z,29.00
2018-05-26T16:03:08.705Z,28.80
2018-05-26T16:05:36.317Z,28.50
2018-05-26T16:08:12.240Z,28.30
2018-05-26T16:10:40.681Z,28.30
2018-05-26T16:13:13.957Z,28.40
2018-05-26T16:15:42.655Z,28.50
2018-05-26T16:18:21.445Z,28.40
2018-05-26T16:20:53.248Z,28.50
2018-05-26T16:23:33.870Z,28.60
2018-05-26T16:26:07.798Z,28.60
2018-05-26T16:28:49.134Z,28.50
2018-05-26T16:31:17.806Z,28.50
2018-05-26T16:33:46.462Z,28.60
2018-05-26T16:36:32.018Z,28.70
2018-05-26T16:39:01.662Z,28.60
2018-05-26T16:41:39.862Z,28.70
2018-05-26T16:44:18.474Z,28.70
2018-05-26T16:49:40.949Z,28.80
2018-05-26T16:52:21.854Z,28.70
2018-05-26T16:55:09.348Z,28.60
2018-05-26T16:57:56.092Z,28.60
2018-05-26T17:00:27.588Z,28.60
2018-05-26T17:02:58.775Z,28.50
2018-05-26T17:05:38.229Z,28.50
2018-05-26T17:08:10.593Z,28.40
2018-05-26T17:10:41.130Z,28.30
2018-05-26T17:13:08.640Z,28.30
2018-05-26T17:15:40.619Z,28.30
2018-05-26T17:18:15.439Z,28.40
2018-05-26T17:20:48.159Z,28.30
2018-05-26T17:23:15.699Z,28.40
2018-05-26T17:25:43.379Z,28.30
2018-05-26T17:28:21.248Z,28.40
2018-05-26T17:30:52.461Z,28.30
2018-05-26T17:33:28.787Z,28.20
2018-05-26T17:36:00.951Z,28.10
2018-05-26T17:38:41.302Z,28.00
2018-05-26T17:41:23.359Z,28.10
2018-05-26T17:43:58.250Z,28.00
2018-05-26T17:46:37.049Z,27.90
2018-05-26T17:49:07.928Z,27.90
2018-05-26T17:51:40.720Z,27.80
2018-05-26T17:54:10.213Z,27.80
2018-05-26T17:56:39.920Z,27.80
2018-05-26T17:59:13.087Z,27.70
2018-05-26T18:01:48.870Z,27.70
2018-05-26T18:04:20.952Z,27.60
2018-05-26T18:06:52.743Z,27.60
2018-05-26T18:09:26.788Z,27.50
2018-05-26T18:11:54.391Z,27.50
2018-05-26T18:14:22.753Z,27.30
2018-05-26T18:16:54.312Z,27.30
2018-05-26T18:19:23.805Z,27.20
2018-05-26T18:22:08.877Z,27.20
2018-05-26T18:24:39.937Z,27.20
2018-05-26T18:27:07.490Z,27.10
2018-05-26T18:29:48.310Z,27.10
2018-05-26T18:32:28.107Z,27.00
2018-05-26T18:35:02.962Z,27.00
2018-05-26T18:37:34.693Z,26.90
2018-05-26T18:40:05.579Z,26.90
2018-05-26T18:45:30.551Z,26.70
2018-05-26T18:47:58.078Z,26.60
2018-05-26T18:50:27.689Z,26.50
2018-05-26T18:52:58.169Z,26.30
2018-05-26T18:55:25.667Z,26.30
2018-05-26T18:57:54.299Z,26.20
2018-05-26T19:00:40.142Z,26.10
2018-05-26T19:03:09.796Z,26.00
2018-05-26T19:05:44.926Z,25.90
2018-05-26T19:08:14.563Z,25.70
2018-05-26T19:10:51.199Z,25.70
2018-05-26T19:13:26.945Z,25.70
2018-05-26T19:16:01.464Z,25.60
2018-05-26T19:18:31.118Z,25.50
2018-05-26T19:21:02.564Z,25.40
2018-05-26T19:23:30.085Z,25.40
2018-05-26T19:25:58.716Z,25.30
2018-05-26T19:28:27.988Z,25.20
2018-05-26T19:31:00.080Z,25.20
2018-05-26T19:33:51.218Z,25.10
2018-05-26T19:36:30.936Z,25.10
2018-05-26T19:39:10.942Z,25.10
2018-05-26T19:41:40.634Z,25.10
2018-05-26T19:44:12.658Z,25.00
2018-05-26T19:46:56.962Z,24.90
2018-05-26T19:49:35.797Z,24.80
2018-05-26T19:52:07.989Z,24.80
2018-05-26T19:54:40.300Z,24.70
2018-05-26T19:57:15.718Z,24.60
2018-05-26T19:59:47.809Z,24.50
2018-05-26T20:02:29.267Z,24.40
2018-05-26T20:04:58.990Z,24.30
2018-05-26T20:07:27.690Z,24.30
2018-05-26T20:09:58.541Z,24.20
2018-05-26T20:12:33.006Z,24.20
2018-05-26T20:15:22.064Z,24.10
2018-05-26T20:17:50.765Z,24.10
2018-05-26T20:23:13.565Z,23.90
2018-05-26T20:25:42.921Z,23.90
2018-05-26T20:28:13.118Z,23.80
2018-05-26T20:30:44.079Z,23.80
2018-05-26T20:33:11.903Z,23.80
2018-05-26T20:35:40.409Z,23.80
2018-05-26T20:38:11.907Z,23.70
2018-05-26T20:40:46.032Z,23.60
2018-05-26T20:43:24.971Z,23.60
2018-05-26T20:46:05.211Z,23.50
2018-05-26T20:48:38.011Z,23.50
2018-05-26T20:51:06.704Z,23.50
2018-05-26T20:53:34.367Z,23.50
2018-05-26T20:56:01.887Z,23.50
2018-05-26T20:58:32.988Z,23.50
2018-05-26T21:01:03.873Z,23.40
2018-05-26T21:03:36.875Z,23.50
2018-05-26T21:06:08.594Z,23.40
2018-05-26T21:08:39.431Z,23.30
2018-05-26T21:11:14.834Z,23.30
2018-05-26T21:13:42.359Z,23.30
2018-05-26T21:16:17.425Z,23.30
2018-05-26T21:18:48.304Z,23.20
2018-05-26T21:21:15.910Z,23.20
2018-05-26T21:23:45.420Z,23.10
2018-05-26T21:26:13.139Z,23.10
2018-05-26T21:28:42.741Z,23.00
2018-05-26T21:31:14.264Z,23.00
2018-05-26T21:33:42.875Z,22.90
2018-05-26T21:36:14.000Z,22.80
2018-05-26T21:38:42.751Z,22.70
2018-05-26T21:41:12.339Z,22.70
2018-05-26T21:43:41.020Z,22.80
2018-05-26T21:46:09.934Z,22.70
2018-05-26T21:48:39.616Z,22.60
2018-05-26T21:51:09.134Z,22.60
2018-05-26T21:53:36.658Z,22.60
2018-05-26T21:56:09.668Z,22.60
2018-05-26T21:58:41.128Z,22.50
2018-05-26T22:01:11.633Z,22.50
2018-05-26T22:03:39.444Z,22.40
2018-05-26T22:06:09.063Z,22.40
2018-05-26T22:08:36.794Z,22.30
2018-05-26T22:11:15.272Z,22.30
2018-05-26T22:13:52.921Z,22.20
2018-05-26T22:16:20.914Z,22.20
2018-05-26T22:18:50.574Z,22.10
2018-05-26T22:21:19.264Z,22.10
2018-05-26T22:23:50.121Z,22.10
2018-05-26T22:26:17.869Z,22.10
2018-05-26T22:28:45.396Z,22.10
2018-05-26T22:31:13.282Z,22.00
2018-05-26T22:33:41.916Z,22.00
2018-05-26T22:36:14.890Z,22.00
2018-05-26T22:38:44.401Z,22.00
2018-05-26T22:41:13.067Z,22.00
2018-05-26T22:43:42.680Z,21.90
2018-05-26T22:46:10.430Z,21.80
2018-05-26T22:48:40.049Z,21.80
2018-05-26T22:51:12.121Z,21.80
2018-05-26T22:53:39.881Z,21.70
2018-05-26T22:56:10.736Z,21.60
2018-05-26T22:58:41.243Z,21.50
2018-05-26T23:01:13.932Z,21.50
2018-05-26T23:03:45.742Z,21.50
2018-05-26T23:06:14.880Z,21.40
2018-05-26T23:08:43.599Z,21.40
2018-05-26T23:11:13.606Z,21.30
2018-05-26T23:13:42.430Z,21.30
2018-05-26T23:16:13.420Z,21.20
2018-05-26T23:18:42.142Z,21.20
2018-05-26T23:21:15.472Z,21.10
2018-05-26T23:23:47.175Z,21.10
2018-05-26T23:26:16.894Z,21.10
2018-05-26T23:28:51.026Z,21.00
2018-05-26T23:31:24.303Z,21.00
2018-05-26T23:33:58.426Z,21.10
2018-05-26T23:36:25.995Z,21.00
2018-05-26T23:38:53.730Z,21.00
2018-05-26T23:41:21.258Z,21.00
2018-05-26T23:43:52.329Z,21.00
2018-05-26T23:46:24.137Z,20.90
2018-05-26T23:48:51.850Z,20.90
2018-05-26T23:51:24.555Z,20.90
2018-05-26T23:53:53.218Z,20.80
2018-05-26T23:56:21.918Z,20.70
2018-05-26T23:58:50.612Z,20.70
